sensor_id;sensor_type;location;lat;lon;timestamp;P1;durP1;ratioP1;P2;durP2;ratioP2
67997;SDS011;54773;53.388;-1.504;2023-01-29T00:00:50;14.00;;;8.68;;
67997;SDS011;54773;53.388;-1.504;2023-01-29T00:03:16;14.25;;;9.13;;
67997;SDS011;54773;53.388;-1.504;2023-01-29T00:05:45;16.63;;;10.52;;
67997;SDS011;54773;53.388;-1.504;2023-01-29T00:08:18;16.65;;;10.07;;
67997;SDS011;54773;53.388;-1.504;2023-01-29T00:10:49;16.75;;;10.07;;
67997;SDS011;54773;53.388;-1.504;2023-01-29T00:13:15;20.48;;;11.30;;
67997;SDS011;54773;53.388;-1.504;2023-01-29T00:15:56;19.03;;;10.97;;
67997;SDS011;54773;53.388;-1.504;2023-01-29T00:18:31;18.02;;;10.70;;
67997;SDS011;54773;53.388;-1.504;2023-01-29T00:20:58;16.60;;;10.13;;
67997;SDS011;54773;53.388;-1.504;2023-01-29T00:23:34;19.92;;;10.90;;
67997;SDS011;54773;53.388;-1.504;2023-01-29T00:26:25;19.25;;;10.63;;
67997;SDS011;54773;53.388;-1.504;2023-01-29T00:28:54;20.08;;;11.32;;
67997;SDS011;54773;53.388;-1.504;2023-01-29T00:31:25;20.67;;;11.90;;
67997;SDS011;54773;53.388;-1.504;2023-01-29T00:33:52;21.60;;;11.68;;
67997;SDS011;54773;53.388;-1.504;2023-01-29T00:36:19;19.58;;;11.73;;
67997;SDS011;54773;53.388;-1.504;2023-01-29T00:38:57;18.90;;;10.85;;
67997;SDS011;54773;53.388;-1.504;2023-01-29T00:41:35;20.38;;;11.18;;
67997;SDS011;54773;53.388;-1.504;2023-01-29T00:44:21;20.70;;;10.82;;
67997;SDS011;54773;53.388;-1.504;2023-01-29T00:47:08;18.33;;;10.32;;
67997;SDS011;54773;53.388;-1.504;2023-01-29T00:49:55;17.83;;;10.82;;
67997;SDS011;54773;53.388;-1.504;2023-01-29T00:52:33;20.02;;;11.90;;
67997;SDS011;54773;53.388;-1.504;2023-01-29T00:55:03;20.75;;;11.40;;
67997;SDS011;54773;53.388;-1.504;2023-01-29T00:57:31;18.30;;;11.82;;
67997;SDS011;54773;53.388;-1.504;2023-01-29T01:00:00;17.20;;;10.40;;
67997;SDS011;54773;53.388;-1.504;2023-01-29T01:02:35;22.13;;;11.77;;
67997;SDS011;54773;53.388;-1.504;2023-01-29T01:05:21;18.65;;;11.50;;
67997;SDS011;54773;53.388;-1.504;2023-01-29T01:07:51;18.70;;;10.85;;
67997;SDS011;54773;53.388;-1.504;2023-01-29T01:10:28;19.48;;;10.98;;
67997;SDS011;54773;53.388;-1.504;2023-01-29T01:12:59;17.55;;;11.45;;
67997;SDS011;54773;53.388;-1.504;2023-01-29T01:15:28;18.73;;;10.30;;
67997;SDS011;54773;53.388;-1.504;2023-01-29T01:17:56;18.15;;;11.27;;
67997;SDS011;54773;53.388;-1.504;2023-01-29T01:20:26;19.95;;;11.48;;
67997;SDS011;54773;53.388;-1.504;2023-01-29T01:22:55;18.13;;;11.23;;
67997;SDS011;54773;53.388;-1.504;2023-01-29T01:25:22;20.63;;;12.15;;
67997;SDS011;54773;53.388;-1.504;2023-01-29T01:28:01;20.27;;;11.85;;
67997;SDS011;54773;53.388;-1.504;2023-01-29T01:30:31;21.15;;;12.00;;
67997;SDS011;54773;53.388;-1.504;2023-01-29T01:33:01;17.95;;;11.15;;
67997;SDS011;54773;53.388;-1.504;2023-01-29T01:35:28;18.85;;;10.95;;
67997;SDS011;54773;53.388;-1.504;2023-01-29T01:38:01;16.60;;;10.68;;
67997;SDS011;54773;53.388;-1.504;2023-01-29T01:40:27;18.30;;;10.90;;
67997;SDS011;54773;53.388;-1.504;2023-01-29T01:42:55;15.38;;;9.93;;
67997;SDS011;54773;53.388;-1.504;2023-01-29T01:45:24;17.05;;;9.98;;
67997;SDS011;54773;53.388;-1.504;2023-01-29T01:47:57;14.85;;;9.00;;
67997;SDS011;54773;53.388;-1.504;2023-01-29T01:50:33;15.48;;;9.10;;
67997;SDS011;54773;53.388;-1.504;2023-01-29T01:53:08;13.07;;;8.00;;
67997;SDS011;54773;53.388;-1.504;2023-01-29T01:55:51;11.85;;;7.32;;
67997;SDS011;54773;53.388;-1.504;2023-01-29T01:58:25;12.63;;;7.72;;
67997;SDS011;54773;53.388;-1.504;2023-01-29T02:00:54;11.98;;;6.60;;
67997;SDS011;54773;53.388;-1.504;2023-01-29T02:03:21;11.30;;;6.03;;
67997;SDS011;54773;53.388;-1.504;2023-01-29T02:06:08;10.27;;;6.43;;
67997;SDS011;54773;53.388;-1.504;2023-01-29T02:08:55;9.38;;;5.60;;
67997;SDS011;54773;53.388;-1.504;2023-01-29T02:11:42;9.90;;;6.00;;
67997;SDS011;54773;53.388;-1.504;2023-01-29T02:14:09;10.00;;;5.85;;
67997;SDS011;54773;53.388;-1.504;2023-01-29T02:16:36;8.25;;;5.10;;
67997;SDS011;54773;53.388;-1.504;2023-01-29T02:19:14;9.50;;;5.32;;
67997;SDS011;54773;53.388;-1.504;2023-01-29T02:21:55;10.25;;;5.70;;
67997;SDS011;54773;53.388;-1.504;2023-01-29T02:24:53;9.10;;;4.85;;
67997;SDS011;54773;53.388;-1.504;2023-01-29T02:44:41;5.32;;;3.35;;
67997;SDS011;54773;53.388;-1.504;2023-01-29T02:47:17;5.15;;;3.22;;
67997;SDS011;54773;53.388;-1.504;2023-01-29T02:52:33;5.90;;;4.03;;
67997;SDS011;54773;53.388;-1.504;2023-01-29T02:55:17;7.40;;;4.20;;
67997;SDS011;54773;53.388;-1.504;2023-01-29T02:57:50;5.95;;;3.60;;
67997;SDS011;54773;53.388;-1.504;2023-01-29T03:00:22;7.93;;;4.50;;
67997;SDS011;54773;53.388;-1.504;2023-01-29T03:03:01;7.97;;;4.07;;
67997;SDS011;54773;53.388;-1.504;2023-01-29T03:08:20;7.55;;;4.55;;
67997;SDS011;54773;53.388;-1.504;2023-01-29T03:11:02;7.80;;;4.38;;
67997;SDS011;54773;53.388;-1.504;2023-01-29T03:16:41;7.32;;;4.55;;
67997;SDS011;54773;53.388;-1.504;2023-01-29T03:21:51;8.05;;;4.70;;
67997;SDS011;54773;53.388;-1.504;2023-01-29T03:27:13;7.47;;;4.03;;
67997;SDS011;54773;53.388;-1.504;2023-01-29T03:30:02;6.43;;;3.60;;
67997;SDS011;54773;53.388;-1.504;2023-01-29T03:32:49;8.02;;;3.80;;
67997;SDS011;54773;53.388;-1.504;2023-01-29T03:35:24;7.85;;;4.03;;
67997;SDS011;54773;53.388;-1.504;2023-01-29T03:38:02;6.38;;;3.55;;
67997;SDS011;54773;53.388;-1.504;2023-01-29T03:40:38;7.68;;;4.10;;
67997;SDS011;54773;53.388;-1.504;2023-01-29T03:46:10;6.35;;;3.50;;
67997;SDS011;54773;53.388;-1.504;2023-01-29T03:49:11;6.78;;;3.67;;
67997;SDS011;54773;53.388;-1.504;2023-01-29T03:55:01;6.25;;;3.40;;
67997;SDS011;54773;53.388;-1.504;2023-01-29T03:57:28;6.75;;;3.50;;
67997;SDS011;54773;53.388;-1.504;2023-01-29T03:59:58;7.05;;;3.25;;
67997;SDS011;54773;53.388;-1.504;2023-01-29T04:05:46;6.63;;;3.30;;
67997;SDS011;54773;53.388;-1.504;2023-01-29T04:08:19;5.65;;;2.97;;
67997;SDS011;54773;53.388;-1.504;2023-01-29T04:10:56;6.97;;;3.42;;
67997;SDS011;54773;53.388;-1.504;2023-01-29T04:13:24;7.18;;;3.40;;
67997;SDS011;54773;53.388;-1.504;2023-01-29T04:15:57;6.07;;;3.10;;
67997;SDS011;54773;53.388;-1.504;2023-01-29T04:18:25;6.53;;;3.08;;
67997;SDS011;54773;53.388;-1.504;2023-01-29T04:20:53;6.15;;;3.00;;
67997;SDS011;54773;53.388;-1.504;2023-01-29T04:23:25;6.13;;;3.10;;
67997;SDS011;54773;53.388;-1.504;2023-01-29T04:26:43;7.38;;;3.35;;
67997;SDS011;54773;53.388;-1.504;2023-01-29T04:32:12;9.27;;;3.70;;
67997;SDS011;54773;53.388;-1.504;2023-01-29T04:35:04;6.50;;;3.17;;
67997;SDS011;54773;53.388;-1.504;2023-01-29T04:37:39;7.45;;;3.67;;
67997;SDS011;54773;53.388;-1.504;2023-01-29T04:40:14;7.75;;;3.33;;
67997;SDS011;54773;53.388;-1.504;2023-01-29T04:42:47;7.03;;;3.45;;
67997;SDS011;54773;53.388;-1.504;2023-01-29T04:48:21;7.55;;;3.90;;
67997;SDS011;54773;53.388;-1.504;2023-01-29T04:57:16;6.00;;;2.80;;
67997;SDS011;54773;53.388;-1.504;2023-01-29T05:00:22;6.80;;;4.03;;
67997;SDS011;54773;53.388;-1.504;2023-01-29T05:02:43;9.90;;;3.80;;
67997;SDS011;54773;53.388;-1.504;2023-01-29T05:05:13;5.85;;;3.10;;
67997;SDS011;54773;53.388;-1.504;2023-01-29T05:07:41;9.07;;;3.58;;
67997;SDS011;54773;53.388;-1.504;2023-01-29T05:10:09;8.35;;;3.40;;
67997;SDS011;54773;53.388;-1.504;2023-01-29T05:12:39;8.77;;;4.22;;
67997;SDS011;54773;53.388;-1.504;2023-01-29T05:15:18;7.22;;;3.58;;
67997;SDS011;54773;53.388;-1.504;2023-01-29T05:17:48;7.07;;;3.90;;
67997;SDS011;54773;53.388;-1.504;2023-01-29T05:20:16;8.18;;;3.58;;
67997;SDS011;54773;53.388;-1.504;2023-01-29T05:22:43;6.10;;;3.40;;
67997;SDS011;54773;53.388;-1.504;2023-01-29T05:25:21;6.13;;;3.63;;
67997;SDS011;54773;53.388;-1.504;2023-01-29T05:27:54;8.00;;;3.42;;
67997;SDS011;54773;53.388;-1.504;2023-01-29T05:30:39;6.03;;;3.40;;
67997;SDS011;54773;53.388;-1.504;2023-01-29T05:33:13;5.40;;;3.30;;
67997;SDS011;54773;53.388;-1.504;2023-01-29T05:35:49;7.35;;;3.33;;
67997;SDS011;54773;53.388;-1.504;2023-01-29T05:38:15;5.90;;;2.97;;
67997;SDS011;54773;53.388;-1.504;2023-01-29T05:40:42;5.97;;;3.33;;
67997;SDS011;54773;53.388;-1.504;2023-01-29T05:43:16;6.95;;;3.60;;
67997;SDS011;54773;53.388;-1.504;2023-01-29T05:48:38;7.10;;;3.60;;
67997;SDS011;54773;53.388;-1.504;2023-01-29T05:51:08;6.72;;;3.90;;
67997;SDS011;54773;53.388;-1.504;2023-01-29T05:53:35;6.78;;;3.92;;
67997;SDS011;54773;53.388;-1.504;2023-01-29T05:56:02;5.85;;;3.50;;
67997;SDS011;54773;53.388;-1.504;2023-01-29T05:58:32;5.70;;;3.47;;
67997;SDS011;54773;53.388;-1.504;2023-01-29T06:01:15;7.00;;;3.50;;
67997;SDS011;54773;53.388;-1.504;2023-01-29T06:03:48;5.63;;;3.10;;
67997;SDS011;54773;53.388;-1.504;2023-01-29T06:06:15;6.63;;;3.30;;
67997;SDS011;54773;53.388;-1.504;2023-01-29T06:08:42;6.20;;;3.40;;
67997;SDS011;54773;53.388;-1.504;2023-01-29T06:11:13;6.03;;;3.50;;
67997;SDS011;54773;53.388;-1.504;2023-01-29T06:13:43;5.25;;;3.30;;
67997;SDS011;54773;53.388;-1.504;2023-01-29T06:16:11;5.68;;;3.38;;
67997;SDS011;54773;53.388;-1.504;2023-01-29T06:18:41;8.00;;;3.47;;
67997;SDS011;54773;53.388;-1.504;2023-01-29T06:21:10;5.80;;;3.30;;
67997;SDS011;54773;53.388;-1.504;2023-01-29T06:23:42;5.47;;;2.88;;
67997;SDS011;54773;53.388;-1.504;2023-01-29T06:26:11;8.15;;;2.95;;
67997;SDS011;54773;53.388;-1.504;2023-01-29T06:28:41;7.65;;;3.83;;
67997;SDS011;54773;53.388;-1.504;2023-01-29T06:31:08;7.82;;;3.22;;
67997;SDS011;54773;53.388;-1.504;2023-01-29T06:33:38;7.43;;;3.65;;
67997;SDS011;54773;53.388;-1.504;2023-01-29T06:36:05;5.68;;;3.20;;
67997;SDS011;54773;53.388;-1.504;2023-01-29T06:38:32;6.28;;;3.55;;
67997;SDS011;54773;53.388;-1.504;2023-01-29T06:41:08;6.60;;;3.00;;
67997;SDS011;54773;53.388;-1.504;2023-01-29T06:43:37;8.68;;;3.65;;
67997;SDS011;54773;53.388;-1.504;2023-01-29T06:46:06;6.47;;;2.92;;
67997;SDS011;54773;53.388;-1.504;2023-01-29T06:48:34;6.25;;;3.30;;
67997;SDS011;54773;53.388;-1.504;2023-01-29T06:51:03;7.55;;;3.08;;
67997;SDS011;54773;53.388;-1.504;2023-01-29T06:53:34;6.63;;;3.60;;
67997;SDS011;54773;53.388;-1.504;2023-01-29T06:56:02;5.72;;;3.70;;
67997;SDS011;54773;53.388;-1.504;2023-01-29T06:58:31;4.88;;;3.17;;
67997;SDS011;54773;53.388;-1.504;2023-01-29T07:01:16;6.88;;;3.80;;
67997;SDS011;54773;53.388;-1.504;2023-01-29T07:03:47;6.47;;;4.20;;
67997;SDS011;54773;53.388;-1.504;2023-01-29T07:06:25;7.53;;;4.65;;
67997;SDS011;54773;53.388;-1.504;2023-01-29T07:09:11;7.03;;;3.83;;
67997;SDS011;54773;53.388;-1.504;2023-01-29T07:11:40;6.13;;;3.90;;
67997;SDS011;54773;53.388;-1.504;2023-01-29T07:14:10;7.82;;;3.90;;
67997;SDS011;54773;53.388;-1.504;2023-01-29T07:16:38;7.93;;;3.75;;
67997;SDS011;54773;53.388;-1.504;2023-01-29T07:19:14;5.63;;;3.60;;
67997;SDS011;54773;53.388;-1.504;2023-01-29T07:21:53;7.22;;;3.10;;
67997;SDS011;54773;53.388;-1.504;2023-01-29T07:24:26;5.38;;;3.35;;
67997;SDS011;54773;53.388;-1.504;2023-01-29T07:26:54;7.07;;;3.60;;
67997;SDS011;54773;53.388;-1.504;2023-01-29T07:29:22;5.45;;;3.13;;
67997;SDS011;54773;53.388;-1.504;2023-01-29T07:31:48;6.00;;;3.55;;
67997;SDS011;54773;53.388;-1.504;2023-01-29T07:34:13;7.03;;;3.13;;
67997;SDS011;54773;53.388;-1.504;2023-01-29T07:36:39;4.43;;;2.92;;
67997;SDS011;54773;53.388;-1.504;2023-01-29T07:39:06;4.47;;;2.80;;
67997;SDS011;54773;53.388;-1.504;2023-01-29T07:41:32;5.35;;;2.88;;
67997;SDS011;54773;53.388;-1.504;2023-01-29T07:43:58;6.40;;;2.80;;
67997;SDS011;54773;53.388;-1.504;2023-01-29T07:46:26;5.85;;;2.70;;
67997;SDS011;54773;53.388;-1.504;2023-01-29T07:48:51;4.82;;;2.60;;
67997;SDS011;54773;53.388;-1.504;2023-01-29T07:51:18;5.05;;;2.65;;
67997;SDS011;54773;53.388;-1.504;2023-01-29T07:53:45;3.58;;;2.17;;
67997;SDS011;54773;53.388;-1.504;2023-01-29T07:56:11;5.28;;;2.40;;
67997;SDS011;54773;53.388;-1.504;2023-01-29T07:58:37;5.55;;;2.35;;
67997;SDS011;54773;53.388;-1.504;2023-01-29T08:01:04;4.05;;;1.80;;
67997;SDS011;54773;53.388;-1.504;2023-01-29T08:03:31;5.28;;;2.13;;
67997;SDS011;54773;53.388;-1.504;2023-01-29T08:05:58;4.80;;;1.83;;
67997;SDS011;54773;53.388;-1.504;2023-01-29T08:08:24;5.20;;;1.90;;
67997;SDS011;54773;53.388;-1.504;2023-01-29T08:10:51;3.28;;;1.60;;
67997;SDS011;54773;53.388;-1.504;2023-01-29T08:13:17;8.57;;;2.28;;
67997;SDS011;54773;53.388;-1.504;2023-01-29T08:15:44;5.05;;;2.00;;
67997;SDS011;54773;53.388;-1.504;2023-01-29T08:18:14;6.53;;;2.22;;
67997;SDS011;54773;53.388;-1.504;2023-01-29T08:20:40;5.72;;;2.53;;
67997;SDS011;54773;53.388;-1.504;2023-01-29T08:23:14;6.15;;;2.50;;
67997;SDS011;54773;53.388;-1.504;2023-01-29T08:25:41;5.53;;;2.58;;
67997;SDS011;54773;53.388;-1.504;2023-01-29T08:28:13;4.10;;;2.20;;
67997;SDS011;54773;53.388;-1.504;2023-01-29T08:30:40;3.63;;;2.08;;
67997;SDS011;54773;53.388;-1.504;2023-01-29T08:33:09;7.43;;;2.30;;
67997;SDS011;54773;53.388;-1.504;2023-01-29T08:35:41;4.60;;;2.22;;
67997;SDS011;54773;53.388;-1.504;2023-01-29T08:38:09;5.90;;;2.10;;
67997;SDS011;54773;53.388;-1.504;2023-01-29T08:40:41;4.20;;;2.00;;
67997;SDS011;54773;53.388;-1.504;2023-01-29T08:43:09;5.05;;;2.30;;
67997;SDS011;54773;53.388;-1.504;2023-01-29T08:45:49;4.30;;;1.98;;
67997;SDS011;54773;53.388;-1.504;2023-01-29T08:48:35;5.15;;;2.60;;
67997;SDS011;54773;53.388;-1.504;2023-01-29T08:51:03;5.22;;;2.40;;
67997;SDS011;54773;53.388;-1.504;2023-01-29T08:53:36;8.25;;;2.65;;
67997;SDS011;54773;53.388;-1.504;2023-01-29T08:56:02;4.90;;;3.05;;
67997;SDS011;54773;53.388;-1.504;2023-01-29T08:58:32;6.72;;;2.60;;
67997;SDS011;54773;53.388;-1.504;2023-01-29T09:01:04;5.65;;;2.78;;
67997;SDS011;54773;53.388;-1.504;2023-01-29T09:03:52;5.88;;;2.72;;
67997;SDS011;54773;53.388;-1.504;2023-01-29T09:06:18;5.90;;;2.83;;
67997;SDS011;54773;53.388;-1.504;2023-01-29T09:08:47;7.65;;;2.50;;
67997;SDS011;54773;53.388;-1.504;2023-01-29T09:11:19;4.10;;;2.40;;
67997;SDS011;54773;53.388;-1.504;2023-01-29T09:13:52;5.60;;;2.20;;
67997;SDS011;54773;53.388;-1.504;2023-01-29T09:16:24;4.80;;;2.50;;
67997;SDS011;54773;53.388;-1.504;2023-01-29T09:18:52;6.18;;;2.58;;
67997;SDS011;54773;53.388;-1.504;2023-01-29T09:21:22;6.68;;;2.50;;
67997;SDS011;54773;53.388;-1.504;2023-01-29T09:23:53;5.22;;;2.30;;
67997;SDS011;54773;53.388;-1.504;2023-01-29T09:26:21;5.03;;;1.90;;
67997;SDS011;54773;53.388;-1.504;2023-01-29T09:28:48;4.57;;;1.88;;
67997;SDS011;54773;53.388;-1.504;2023-01-29T09:31:18;4.25;;;1.83;;
67997;SDS011;54773;53.388;-1.504;2023-01-29T09:33:44;3.47;;;1.90;;
67997;SDS011;54773;53.388;-1.504;2023-01-29T09:36:10;4.55;;;1.92;;
67997;SDS011;54773;53.388;-1.504;2023-01-29T09:38:37;5.55;;;2.30;;
67997;SDS011;54773;53.388;-1.504;2023-01-29T09:41:25;7.07;;;2.63;;
67997;SDS011;54773;53.388;-1.504;2023-01-29T09:43:55;5.57;;;2.92;;
67997;SDS011;54773;53.388;-1.504;2023-01-29T09:46:28;6.03;;;2.47;;
67997;SDS011;54773;53.388;-1.504;2023-01-29T09:51:52;7.68;;;3.35;;
67997;SDS011;54773;53.388;-1.504;2023-01-29T09:54:29;5.93;;;2.80;;
67997;SDS011;54773;53.388;-1.504;2023-01-29T09:57:04;8.00;;;2.70;;
67997;SDS011;54773;53.388;-1.504;2023-01-29T09:59:31;5.65;;;3.00;;
67997;SDS011;54773;53.388;-1.504;2023-01-29T10:16:15;5.45;;;3.38;;
67997;SDS011;54773;53.388;-1.504;2023-01-29T10:18:52;6.07;;;2.78;;
67997;SDS011;54773;53.388;-1.504;2023-01-29T10:21:35;4.95;;;2.80;;
67997;SDS011;54773;53.388;-1.504;2023-01-29T10:26:59;4.30;;;2.90;;
67997;SDS011;54773;53.388;-1.504;2023-01-29T10:29:27;7.63;;;3.38;;
67997;SDS011;54773;53.388;-1.504;2023-01-29T10:31:59;5.25;;;3.15;;
67997;SDS011;54773;53.388;-1.504;2023-01-29T10:34:40;7.05;;;2.60;;
67997;SDS011;54773;53.388;-1.504;2023-01-29T10:37:21;4.90;;;2.60;;
67997;SDS011;54773;53.388;-1.504;2023-01-29T10:39:48;4.65;;;2.10;;
67997;SDS011;54773;53.388;-1.504;2023-01-29T10:42:16;5.40;;;2.60;;
67997;SDS011;54773;53.388;-1.504;2023-01-29T10:50:24;4.82;;;2.20;;
67997;SDS011;54773;53.388;-1.504;2023-01-29T10:58:21;4.38;;;2.20;;
67997;SDS011;54773;53.388;-1.504;2023-01-29T11:01:11;4.70;;;2.55;;
67997;SDS011;54773;53.388;-1.504;2023-01-29T11:03:37;2.70;;;1.33;;
67997;SDS011;54773;53.388;-1.504;2023-01-29T11:06:06;4.18;;;1.90;;
67997;SDS011;54773;53.388;-1.504;2023-01-29T11:11:19;3.90;;;2.08;;
67997;SDS011;54773;53.388;-1.504;2023-01-29T11:13:52;4.55;;;2.00;;
67997;SDS011;54773;53.388;-1.504;2023-01-29T11:16:22;4.75;;;2.10;;
67997;SDS011;54773;53.388;-1.504;2023-01-29T11:18:55;4.85;;;2.15;;
67997;SDS011;54773;53.388;-1.504;2023-01-29T11:24:10;5.22;;;2.10;;
67997;SDS011;54773;53.388;-1.504;2023-01-29T11:26:42;7.47;;;2.22;;
67997;SDS011;54773;53.388;-1.504;2023-01-29T11:29:29;4.47;;;2.20;;
67997;SDS011;54773;53.388;-1.504;2023-01-29T11:32:05;3.90;;;2.47;;
67997;SDS011;54773;53.388;-1.504;2023-01-29T11:34:35;6.15;;;2.90;;
67997;SDS011;54773;53.388;-1.504;2023-01-29T11:37:20;5.53;;;3.50;;
67997;SDS011;54773;53.388;-1.504;2023-01-29T11:39:53;5.22;;;3.60;;
67997;SDS011;54773;53.388;-1.504;2023-01-29T11:42:22;8.27;;;4.00;;
67997;SDS011;54773;53.388;-1.504;2023-01-29T11:44:51;6.72;;;3.90;;
67997;SDS011;54773;53.388;-1.504;2023-01-29T11:49:56;4.63;;;3.22;;
67997;SDS011;54773;53.388;-1.504;2023-01-29T11:52:40;4.85;;;3.42;;
67997;SDS011;54773;53.388;-1.504;2023-01-29T11:55:15;4.88;;;3.30;;
67997;SDS011;54773;53.388;-1.504;2023-01-29T11:57:50;6.20;;;3.08;;
67997;SDS011;54773;53.388;-1.504;2023-01-29T12:00:23;6.95;;;2.85;;
67997;SDS011;54773;53.388;-1.504;2023-01-29T12:05:57;7.45;;;2.80;;
67997;SDS011;54773;53.388;-1.504;2023-01-29T12:08:33;5.90;;;2.30;;
67997;SDS011;54773;53.388;-1.504;2023-01-29T12:11:45;5.38;;;1.80;;
67997;SDS011;54773;53.388;-1.504;2023-01-29T12:13:59;3.58;;;1.70;;
67997;SDS011;54773;53.388;-1.504;2023-01-29T12:24:30;3.30;;;1.67;;
67997;SDS011;54773;53.388;-1.504;2023-01-29T12:33:13;4.55;;;1.92;;
67997;SDS011;54773;53.388;-1.504;2023-01-29T12:35:49;4.20;;;1.90;;
67997;SDS011;54773;53.388;-1.504;2023-01-29T12:38:21;6.88;;;2.20;;
67997;SDS011;54773;53.388;-1.504;2023-01-29T12:46:13;4.75;;;1.88;;
67997;SDS011;54773;53.388;-1.504;2023-01-29T12:48:43;4.63;;;1.85;;
67997;SDS011;54773;53.388;-1.504;2023-01-29T12:51:15;5.30;;;1.73;;
67997;SDS011;54773;53.388;-1.504;2023-01-29T12:56:15;5.60;;;1.45;;
67997;SDS011;54773;53.388;-1.504;2023-01-29T12:59:11;4.65;;;1.85;;
67997;SDS011;54773;53.388;-1.504;2023-01-29T13:01:49;4.45;;;1.70;;
67997;SDS011;54773;53.388;-1.504;2023-01-29T13:04:35;4.93;;;1.80;;
67997;SDS011;54773;53.388;-1.504;2023-01-29T13:09:42;3.22;;;1.55;;
67997;SDS011;54773;53.388;-1.504;2023-01-29T13:22:38;4.22;;;1.50;;
67997;SDS011;54773;53.388;-1.504;2023-01-29T13:25:22;4.97;;;1.98;;
67997;SDS011;54773;53.388;-1.504;2023-01-29T13:35:40;6.75;;;1.80;;
67997;SDS011;54773;53.388;-1.504;2023-01-29T13:38:41;4.85;;;1.80;;
67997;SDS011;54773;53.388;-1.504;2023-01-29T13:41:15;3.70;;;1.50;;
67997;SDS011;54773;53.388;-1.504;2023-01-29T13:44:04;4.55;;;1.35;;
67997;SDS011;54773;53.388;-1.504;2023-01-29T13:47:02;4.20;;;1.30;;
67997;SDS011;54773;53.388;-1.504;2023-01-29T13:49:58;2.65;;;1.20;;
67997;SDS011;54773;53.388;-1.504;2023-01-29T13:52:45;3.38;;;1.67;;
67997;SDS011;54773;53.388;-1.504;2023-01-29T13:58:15;5.32;;;1.85;;
67997;SDS011;54773;53.388;-1.504;2023-01-29T14:00:58;4.43;;;2.10;;
67997;SDS011;54773;53.388;-1.504;2023-01-29T14:08:59;8.00;;;4.00;;
67997;SDS011;54773;53.388;-1.504;2023-01-29T14:11:27;7.97;;;5.43;;
67997;SDS011;54773;53.388;-1.504;2023-01-29T14:13:59;7.10;;;4.95;;
67997;SDS011;54773;53.388;-1.504;2023-01-29T14:16:27;6.85;;;4.43;;
67997;SDS011;54773;53.388;-1.504;2023-01-29T14:18:59;6.40;;;4.70;;
67997;SDS011;54773;53.388;-1.504;2023-01-29T14:21:29;6.35;;;5.10;;
67997;SDS011;54773;53.388;-1.504;2023-01-29T14:24:10;7.07;;;5.47;;
67997;SDS011;54773;53.388;-1.504;2023-01-29T14:26:46;8.27;;;5.50;;
67997;SDS011;54773;53.388;-1.504;2023-01-29T14:29:26;7.25;;;5.03;;
67997;SDS011;54773;53.388;-1.504;2023-01-29T14:32:06;12.07;;;5.90;;
67997;SDS011;54773;53.388;-1.504;2023-01-29T14:34:40;7.90;;;5.43;;
67997;SDS011;54773;53.388;-1.504;2023-01-29T14:47:50;8.10;;;5.57;;
67997;SDS011;54773;53.388;-1.504;2023-01-29T14:50:02;9.15;;;6.20;;
67997;SDS011;54773;53.388;-1.504;2023-01-29T14:52:52;9.70;;;6.00;;
67997;SDS011;54773;53.388;-1.504;2023-01-29T14:58:18;8.73;;;5.32;;
67997;SDS011;54773;53.388;-1.504;2023-01-29T15:01:00;7.70;;;5.00;;
67997;SDS011;54773;53.388;-1.504;2023-01-29T15:03:35;8.25;;;4.80;;
67997;SDS011;54773;53.388;-1.504;2023-01-29T15:06:09;7.32;;;4.88;;
67997;SDS011;54773;53.388;-1.504;2023-01-29T15:08:44;8.02;;;5.07;;
67997;SDS011;54773;53.388;-1.504;2023-01-29T15:11:31;8.38;;;4.53;;
67997;SDS011;54773;53.388;-1.504;2023-01-29T15:19:36;8.13;;;5.45;;
67997;SDS011;54773;53.388;-1.504;2023-01-29T15:25:03;8.27;;;5.93;;
67997;SDS011;54773;53.388;-1.504;2023-01-29T15:27:47;9.73;;;5.88;;
67997;SDS011;54773;53.388;-1.504;2023-01-29T15:30:22;7.75;;;5.63;;
67997;SDS011;54773;53.388;-1.504;2023-01-29T15:32:53;8.57;;;6.53;;
67997;SDS011;54773;53.388;-1.504;2023-01-29T15:40:25;10.25;;;8.05;;
67997;SDS011;54773;53.388;-1.504;2023-01-29T15:42:51;10.02;;;8.48;;
67997;SDS011;54773;53.388;-1.504;2023-01-29T15:45:21;11.23;;;9.48;;
67997;SDS011;54773;53.388;-1.504;2023-01-29T15:47:50;9.93;;;8.32;;
67997;SDS011;54773;53.388;-1.504;2023-01-29T15:50:17;14.52;;;9.05;;
67997;SDS011;54773;53.388;-1.504;2023-01-29T15:52:48;10.60;;;8.05;;
67997;SDS011;54773;53.388;-1.504;2023-01-29T15:55:18;10.57;;;7.82;;
67997;SDS011;54773;53.388;-1.504;2023-01-29T15:57:49;9.52;;;6.88;;
67997;SDS011;54773;53.388;-1.504;2023-01-29T16:00:23;15.60;;;8.55;;
67997;SDS011;54773;53.388;-1.504;2023-01-29T16:02:53;9.18;;;6.72;;
67997;SDS011;54773;53.388;-1.504;2023-01-29T16:05:27;10.03;;;7.23;;
67997;SDS011;54773;53.388;-1.504;2023-01-29T16:07:57;9.65;;;7.45;;
67997;SDS011;54773;53.388;-1.504;2023-01-29T16:10:32;10.90;;;7.15;;
67997;SDS011;54773;53.388;-1.504;2023-01-29T16:13:05;9.88;;;6.53;;
67997;SDS011;54773;53.388;-1.504;2023-01-29T16:18:57;10.57;;;6.55;;
67997;SDS011;54773;53.388;-1.504;2023-01-29T16:21:26;8.52;;;6.13;;
67997;SDS011;54773;53.388;-1.504;2023-01-29T16:23:58;7.25;;;5.13;;
67997;SDS011;54773;53.388;-1.504;2023-01-29T16:26:28;7.93;;;5.70;;
67997;SDS011;54773;53.388;-1.504;2023-01-29T16:28:56;7.25;;;5.10;;
67997;SDS011;54773;53.388;-1.504;2023-01-29T16:31:31;8.77;;;5.45;;
67997;SDS011;54773;53.388;-1.504;2023-01-29T16:34:40;7.32;;;5.35;;
67997;SDS011;54773;53.388;-1.504;2023-01-29T16:36:53;7.47;;;5.25;;
67997;SDS011;54773;53.388;-1.504;2023-01-29T16:39:20;7.93;;;5.53;;
67997;SDS011;54773;53.388;-1.504;2023-01-29T16:42:34;7.50;;;5.35;;
67997;SDS011;54773;53.388;-1.504;2023-01-29T16:48:31;10.50;;;5.97;;
67997;SDS011;54773;53.388;-1.504;2023-01-29T16:53:54;10.32;;;6.78;;
67997;SDS011;54773;53.388;-1.504;2023-01-29T16:56:24;13.90;;;8.77;;
67997;SDS011;54773;53.388;-1.504;2023-01-29T16:58:52;9.75;;;7.25;;
67997;SDS011;54773;53.388;-1.504;2023-01-29T17:01:22;10.25;;;7.00;;
67997;SDS011;54773;53.388;-1.504;2023-01-29T17:04:10;13.00;;;7.30;;
67997;SDS011;54773;53.388;-1.504;2023-01-29T17:06:43;10.57;;;7.30;;
67997;SDS011;54773;53.388;-1.504;2023-01-29T17:09:20;9.65;;;6.95;;
67997;SDS011;54773;53.388;-1.504;2023-01-29T17:12:06;9.32;;;6.85;;
67997;SDS011;54773;53.388;-1.504;2023-01-29T17:14:33;8.77;;;6.68;;
67997;SDS011;54773;53.388;-1.504;2023-01-29T17:17:13;9.10;;;6.40;;
67997;SDS011;54773;53.388;-1.504;2023-01-29T17:19:40;7.93;;;5.63;;
67997;SDS011;54773;53.388;-1.504;2023-01-29T17:22:06;7.85;;;5.80;;
67997;SDS011;54773;53.388;-1.504;2023-01-29T17:24:45;8.25;;;6.30;;
67997;SDS011;54773;53.388;-1.504;2023-01-29T17:27:26;7.15;;;4.90;;
67997;SDS011;54773;53.388;-1.504;2023-01-29T17:29:58;8.40;;;5.57;;
67997;SDS011;54773;53.388;-1.504;2023-01-29T17:32:43;7.85;;;4.55;;
67997;SDS011;54773;53.388;-1.504;2023-01-29T17:35:13;7.63;;;5.47;;
67997;SDS011;54773;53.388;-1.504;2023-01-29T17:37:39;9.32;;;6.20;;
67997;SDS011;54773;53.388;-1.504;2023-01-29T17:40:27;7.95;;;6.07;;
67997;SDS011;54773;53.388;-1.504;2023-01-29T17:42:56;7.03;;;6.18;;
67997;SDS011;54773;53.388;-1.504;2023-01-29T17:45:23;8.75;;;6.78;;
67997;SDS011;54773;53.388;-1.504;2023-01-29T17:47:49;11.68;;;6.60;;
67997;SDS011;54773;53.388;-1.504;2023-01-29T17:50:23;11.38;;;7.70;;
67997;SDS011;54773;53.388;-1.504;2023-01-29T17:52:57;10.07;;;7.93;;
67997;SDS011;54773;53.388;-1.504;2023-01-29T17:55:26;10.10;;;6.93;;
67997;SDS011;54773;53.388;-1.504;2023-01-29T17:57:54;7.30;;;6.10;;
67997;SDS011;54773;53.388;-1.504;2023-01-29T18:00:22;8.70;;;6.30;;
67997;SDS011;54773;53.388;-1.504;2023-01-29T18:02:49;7.80;;;5.90;;
67997;SDS011;54773;53.388;-1.504;2023-01-29T18:05:17;7.88;;;6.03;;
67997;SDS011;54773;53.388;-1.504;2023-01-29T18:07:45;7.10;;;5.28;;
67997;SDS011;54773;53.388;-1.504;2023-01-29T18:10:22;10.07;;;5.93;;
67997;SDS011;54773;53.388;-1.504;2023-01-29T18:12:53;8.30;;;5.32;;